sensor_id;sensor_type;location;lat;lon;timestamp;P1;P2;P0
48155;PMS5003;35568;48.104;11.782;2023-12-20T00:00:21;6;5;
48155;PMS5003;35568;48.104;11.782;2023-12-20T00:02:48;3;3;
48155;PMS5003;35568;48.104;11.782;2023-12-20T00:05:15;7;6;
48155;PMS5003;35568;48.104;11.782;2023-12-20T00:07:43;4;4;
48155;PMS5003;35568;48.104;11.782;2023-12-20T00:10:10;5;3;
48155;PMS5003;35568;48.104;11.782;2023-12-20T00:12:37;4;4;
48155;PMS5003;35568;48.104;11.782;2023-12-20T00:15:04;3;3;
48155;PMS5003;35568;48.104;11.782;2023-12-20T00:17:31;3;3;
48155;PMS5003;35568;48.104;11.782;2023-12-20T00:19:58;3;3;
48155;PMS5003;35568;48.104;11.782;2023-12-20T00:22:25;3;3;
48155;PMS5003;35568;48.104;11.782;2023-12-20T00:24:52;3;3;
48155;PMS5003;35568;48.104;11.782;2023-12-20T00:27:19;4;4;
48155;PMS5003;35568;48.104;11.782;2023-12-20T00:29:47;2;1;
48155;PMS5003;35568;48.104;11.782;2023-12-20T00:32:14;1;1;
48155;PMS5003;35568;48.104;11.782;2023-12-20T00:34:42;2;2;
48155;PMS5003;35568;48.104;11.782;2023-12-20T00:37:09;3;3;
48155;PMS5003;35568;48.104;11.782;2023-12-20T00:39:36;3;3;
48155;PMS5003;35568;48.104;11.782;2023-12-20T00:42:03;2;2;
48155;PMS5003;35568;48.104;11.782;2023-12-20T00:44:31;3;3;
48155;PMS5003;35568;48.104;11.782;2023-12-20T00:46:58;2;2;
48155;PMS5003;35568;48.104;11.782;2023-12-20T00:49:24;1;1;
48155;PMS5003;35568;48.104;11.782;2023-12-20T00:51:51;2;2;
48155;PMS5003;35568;48.104;11.782;2023-12-20T00:54:18;1;1;
48155;PMS5003;35568;48.104;11.782;2023-12-20T00:56:45;2;2;
48155;PMS5003;35568;48.104;11.782;2023-12-20T00:59:12;1;1;
48155;PMS5003;35568;48.104;11.782;2023-12-20T01:01:39;1;1;
48155;PMS5003;35568;48.104;11.782;2023-12-20T01:04:06;5;2;
48155;PMS5003;35568;48.104;11.782;2023-12-20T01:06:34;1;1;
48155;PMS5003;35568;48.104;11.782;2023-12-20T01:09:01;2;2;
48155;PMS5003;35568;48.104;11.782;2023-12-20T01:11:27;3;3;
48155;PMS5003;35568;48.104;11.782;2023-12-20T01:13:54;2;2;
48155;PMS5003;35568;48.104;11.782;2023-12-20T01:16:21;2;2;
48155;PMS5003;35568;48.104;11.782;2023-12-20T01:18:48;2;2;
48155;PMS5003;35568;48.104;11.782;2023-12-20T01:21:15;3;3;
48155;PMS5003;35568;48.104;11.782;2023-12-20T01:23:42;4;4;
48155;PMS5003;35568;48.104;11.782;2023-12-20T01:26:09;2;2;
48155;PMS5003;35568;48.104;11.782;2023-12-20T01:28:36;2;2;
48155;PMS5003;35568;48.104;11.782;2023-12-20T01:31:03;1;1;
48155;PMS5003;35568;48.104;11.782;2023-12-20T01:33:30;5;3;
48155;PMS5003;35568;48.104;11.782;2023-12-20T01:35:57;3;3;
48155;PMS5003;35568;48.104;11.782;2023-12-20T01:38:24;2;2;
48155;PMS5003;35568;48.104;11.782;2023-12-20T01:40:51;2;2;
48155;PMS5003;35568;48.104;11.782;2023-12-20T01:43:18;3;3;
48155;PMS5003;35568;48.104;11.782;2023-12-20T01:45:44;3;3;
48155;PMS5003;35568;48.104;11.782;2023-12-20T01:48:12;3;3;
48155;PMS5003;35568;48.104;11.782;2023-12-20T01:50:41;3;3;
48155;PMS5003;35568;48.104;11.782;2023-12-20T01:53:09;2;2;
48155;PMS5003;35568;48.104;11.782;2023-12-20T01:55:38;3;3;
48155;PMS5003;35568;48.104;11.782;2023-12-20T01:58:06;3;3;
48155;PMS5003;35568;48.104;11.782;2023-12-20T02:00:35;3;2;
48155;PMS5003;35568;48.104;11.782;2023-12-20T02:03:03;2;2;
48155;PMS5003;35568;48.104;11.782;2023-12-20T02:05:30;3;3;
48155;PMS5003;35568;48.104;11.782;2023-12-20T02:07:58;3;3;
48155;PMS5003;35568;48.104;11.782;2023-12-20T02:10:25;6;6;
48155;PMS5003;35568;48.104;11.782;2023-12-20T02:12:53;2;2;
48155;PMS5003;35568;48.104;11.782;2023-12-20T02:15:21;4;4;
48155;PMS5003;35568;48.104;11.782;2023-12-20T02:17:49;2;2;
48155;PMS5003;35568;48.104;11.782;2023-12-20T02:20:16;2;2;
48155;PMS5003;35568;48.104;11.782;2023-12-20T02:22:44;4;4;
48155;PMS5003;35568;48.104;11.782;2023-12-20T02:25:12;3;3;
48155;PMS5003;35568;48.104;11.782;2023-12-20T02:27:39;4;3;
48155;PMS5003;35568;48.104;11.782;2023-12-20T02:30:07;3;3;
48155;PMS5003;35568;48.104;11.782;2023-12-20T02:32:37;2;2;
48155;PMS5003;35568;48.104;11.782;2023-12-20T02:35:03;4;4;
48155;PMS5003;35568;48.104;11.782;2023-12-20T02:37:32;3;3;
48155;PMS5003;35568;48.104;11.782;2023-12-20T02:40:00;2;2;
48155;PMS5003;35568;48.104;11.782;2023-12-20T02:42:27;4;4;
48155;PMS5003;35568;48.104;11.782;2023-12-20T02:44:55;3;3;
48155;PMS5003;35568;48.104;11.782;2023-12-20T02:47:22;4;4;
48155;PMS5003;35568;48.104;11.782;2023-12-20T02:49:49;4;4;
48155;PMS5003;35568;48.104;11.782;2023-12-20T02:52:17;4;4;
48155;PMS5003;35568;48.104;11.782;2023-12-20T02:54:45;4;4;
48155;PMS5003;35568;48.104;11.782;2023-12-20T02:57:12;3;3;
48155;PMS5003;35568;48.104;11.782;2023-12-20T02:59:39;3;3;
48155;PMS5003;35568;48.104;11.782;2023-12-20T03:02:07;3;3;
48155;PMS5003;35568;48.104;11.782;2023-12-20T03:04:35;6;5;
48155;PMS5003;35568;48.104;11.782;2023-12-20T03:07:01;4;4;
48155;PMS5003;35568;48.104;11.782;2023-12-20T03:09:28;4;4;
48155;PMS5003;35568;48.104;11.782;2023-12-20T03:11:55;5;5;
48155;PMS5003;35568;48.104;11.782;2023-12-20T03:14:23;4;3;
48155;PMS5003;35568;48.104;11.782;2023-12-20T03:16:50;3;3;
48155;PMS5003;35568;48.104;11.782;2023-12-20T03:19:17;3;3;
48155;PMS5003;35568;48.104;11.782;2023-12-20T03:21:45;3;3;
48155;PMS5003;35568;48.104;11.782;2023-12-20T03:24:12;1;1;
48155;PMS5003;35568;48.104;11.782;2023-12-20T03:26:39;1;1;
48155;PMS5003;35568;48.104;11.782;2023-12-20T03:29:06;2;2;
48155;PMS5003;35568;48.104;11.782;2023-12-20T03:31:33;2;2;
48155;PMS5003;35568;48.104;11.782;2023-12-20T03:34:00;3;3;
48155;PMS5003;35568;48.104;11.782;2023-12-20T03:36:27;1;1;
48155;PMS5003;35568;48.104;11.782;2023-12-20T03:38:54;2;2;
48155;PMS5003;35568;48.104;11.782;2023-12-20T03:41:21;3;3;
48155;PMS5003;35568;48.104;11.782;2023-12-20T03:43:47;3;3;
48155;PMS5003;35568;48.104;11.782;2023-12-20T03:46:14;2;2;
48155;PMS5003;35568;48.104;11.782;2023-12-20T03:48:42;3;3;
48155;PMS5003;35568;48.104;11.782;2023-12-20T03:51:09;2;2;
48155;PMS5003;35568;48.104;11.782;2023-12-20T03:53:36;2;2;
48155;PMS5003;35568;48.104;11.782;2023-12-20T03:56:02;4;4;
48155;PMS5003;35568;48.104;11.782;2023-12-20T03:58:30;2;2;
48155;PMS5003;35568;48.104;11.782;2023-12-20T04:03:00;1;1;
48155;PMS5003;35568;48.104;11.782;2023-12-20T04:05:27;1;1;
48155;PMS5003;35568;48.104;11.782;2023-12-20T04:07:55;2;2;
48155;PMS5003;35568;48.104;11.782;2023-12-20T04:10:22;3;3;
48155;PMS5003;35568;48.104;11.782;2023-12-20T04:12:48;3;3;
48155;PMS5003;35568;48.104;11.782;2023-12-20T04:15:15;3;3;
48155;PMS5003;35568;48.104;11.782;2023-12-20T04:17:43;3;3;
48155;PMS5003;35568;48.104;11.782;2023-12-20T04:20:10;4;3;
48155;PMS5003;35568;48.104;11.782;2023-12-20T04:22:37;1;1;
48155;PMS5003;35568;48.104;11.782;2023-12-20T04:25:05;1;1;
48155;PMS5003;35568;48.104;11.782;2023-12-20T04:27:33;1;1;
48155;PMS5003;35568;48.104;11.782;2023-12-20T04:30:00;1;1;
48155;PMS5003;35568;48.104;11.782;2023-12-20T04:32:26;2;2;
48155;PMS5003;35568;48.104;11.782;2023-12-20T04:34:53;1;1;
48155;PMS5003;35568;48.104;11.782;2023-12-20T04:37:20;1;0;
48155;PMS5003;35568;48.104;11.782;2023-12-20T04:39:47;0;0;
48155;PMS5003;35568;48.104;11.782;2023-12-20T04:42:14;0;0;
48155;PMS5003;35568;48.104;11.782;2023-12-20T04:44:41;0;0;
48155;PMS5003;35568;48.104;11.782;2023-12-20T04:47:08;0;0;
48155;PMS5003;35568;48.104;11.782;2023-12-20T04:49:35;0;0;
48155;PMS5003;35568;48.104;11.782;2023-12-20T04:52:02;0;0;
48155;PMS5003;35568;48.104;11.782;2023-12-20T04:54:30;0;0;
48155;PMS5003;35568;48.104;11.782;2023-12-20T04:56:57;0;0;
48155;PMS5003;35568;48.104;11.782;2023-12-20T04:59:24;0;0;
48155;PMS5003;35568;48.104;11.782;2023-12-20T05:01:51;0;0;
48155;PMS5003;35568;48.104;11.782;2023-12-20T05:04:18;1;1;
48155;PMS5003;35568;48.104;11.782;2023-12-20T05:06:45;0;0;
48155;PMS5003;35568;48.104;11.782;2023-12-20T05:09:12;0;0;
48155;PMS5003;35568;48.104;11.782;2023-12-20T05:11:39;0;0;
48155;PMS5003;35568;48.104;11.782;2023-12-20T05:14:06;0;0;
48155;PMS5003;35568;48.104;11.782;2023-12-20T05:16:33;0;0;
48155;PMS5003;35568;48.104;11.782;2023-12-20T05:19:00;1;1;
48155;PMS5003;35568;48.104;11.782;2023-12-20T05:21:27;1;1;
48155;PMS5003;35568;48.104;11.782;2023-12-20T05:23:53;0;0;
48155;PMS5003;35568;48.104;11.782;2023-12-20T05:26:20;0;0;
48155;PMS5003;35568;48.104;11.782;2023-12-20T05:28:47;0;0;
48155;PMS5003;35568;48.104;11.782;2023-12-20T05:31:15;1;1;
48155;PMS5003;35568;48.104;11.782;2023-12-20T05:33:42;1;1;
48155;PMS5003;35568;48.104;11.782;2023-12-20T05:36:08;0;0;
48155;PMS5003;35568;48.104;11.782;2023-12-20T05:38:35;0;0;
48155;PMS5003;35568;48.104;11.782;2023-12-20T05:41:03;1;1;
48155;PMS5003;35568;48.104;11.782;2023-12-20T05:43:30;1;1;
48155;PMS5003;35568;48.104;11.782;2023-12-20T05:45:57;0;0;
48155;PMS5003;35568;48.104;11.782;2023-12-20T05:48:24;1;1;
48155;PMS5003;35568;48.104;11.782;2023-12-20T05:50:50;0;0;
48155;PMS5003;35568;48.104;11.782;2023-12-20T05:53:17;2;2;
48155;PMS5003;35568;48.104;11.782;2023-12-20T05:55:44;0;0;
48155;PMS5003;35568;48.104;11.782;2023-12-20T05:58:11;0;0;
48155;PMS5003;35568;48.104;11.782;2023-12-20T06:00:38;2;1;
48155;PMS5003;35568;48.104;11.782;2023-12-20T06:03:05;1;1;
48155;PMS5003;35568;48.104;11.782;2023-12-20T06:05:32;0;0;
48155;PMS5003;35568;48.104;11.782;2023-12-20T06:08:01;0;0;
48155;PMS5003;35568;48.104;11.782;2023-12-20T06:10:28;1;1;
48155;PMS5003;35568;48.104;11.782;2023-12-20T06:12:55;0;0;
48155;PMS5003;35568;48.104;11.782;2023-12-20T06:15:22;0;0;
48155;PMS5003;35568;48.104;11.782;2023-12-20T06:17:50;0;0;
48155;PMS5003;35568;48.104;11.782;2023-12-20T06:20:17;1;1;
48155;PMS5003;35568;48.104;11.782;2023-12-20T06:22:44;1;1;
48155;PMS5003;35568;48.104;11.782;2023-12-20T06:25:11;1;1;
48155;PMS5003;35568;48.104;11.782;2023-12-20T06:27:38;1;1;
48155;PMS5003;35568;48.104;11.782;2023-12-20T06:30:05;3;2;
48155;PMS5003;35568;48.104;11.782;2023-12-20T06:32:33;1;1;
48155;PMS5003;35568;48.104;11.782;2023-12-20T06:35:00;1;1;
48155;PMS5003;35568;48.104;11.782;2023-12-20T06:37:27;0;0;
48155;PMS5003;35568;48.104;11.782;2023-12-20T06:39:54;1;1;
48155;PMS5003;35568;48.104;11.782;2023-12-20T06:42:21;0;0;
48155;PMS5003;35568;48.104;11.782;2023-12-20T06:44:50;2;2;
48155;PMS5003;35568;48.104;11.782;2023-12-20T06:47:18;1;1;
48155;PMS5003;35568;48.104;11.782;2023-12-20T06:49:44;0;0;
48155;PMS5003;35568;48.104;11.782;2023-12-20T06:52:11;3;3;
48155;PMS5003;35568;48.104;11.782;2023-12-20T06:54:38;1;1;
48155;PMS5003;35568;48.104;11.782;2023-12-20T06:57:05;0;0;
48155;PMS5003;35568;48.104;11.782;2023-12-20T06:59:32;1;0;
48155;PMS5003;35568;48.104;11.782;2023-12-20T07:02:00;0;0;
48155;PMS5003;35568;48.104;11.782;2023-12-20T07:04:26;1;1;
48155;PMS5003;35568;48.104;11.782;2023-12-20T07:06:53;1;1;
48155;PMS5003;35568;48.104;11.782;2023-12-20T07:09:20;1;1;
48155;PMS5003;35568;48.104;11.782;2023-12-20T07:11:47;0;0;
48155;PMS5003;35568;48.104;11.782;2023-12-20T07:14:15;0;0;
48155;PMS5003;35568;48.104;11.782;2023-12-20T07:16:42;0;0;
48155;PMS5003;35568;48.104;11.782;2023-12-20T07:19:08;0;0;
48155;PMS5003;35568;48.104;11.782;2023-12-20T07:21:35;1;1;
48155;PMS5003;35568;48.104;11.782;2023-12-20T07:24:02;0;0;
48155;PMS5003;35568;48.104;11.782;2023-12-20T07:26:29;0;0;
48155;PMS5003;35568;48.104;11.782;2023-12-20T07:28:56;1;1;
48155;PMS5003;35568;48.104;11.782;2023-12-20T07:31:23;1;1;
48155;PMS5003;35568;48.104;11.782;2023-12-20T07:33:50;1;1;
48155;PMS5003;35568;48.104;11.782;2023-12-20T07:36:19;1;1;
48155;PMS5003;35568;48.104;11.782;2023-12-20T07:38:46;0;0;
48155;PMS5003;35568;48.104;11.782;2023-12-20T07:41:13;0;0;
48155;PMS5003;35568;48.104;11.782;2023-12-20T07:43:41;0;0;
48155;PMS5003;35568;48.104;11.782;2023-12-20T07:46:08;0;0;
48155;PMS5003;35568;48.104;11.782;2023-12-20T07:48:35;1;1;
48155;PMS5003;35568;48.104;11.782;2023-12-20T07:51:03;0;0;
48155;PMS5003;35568;48.104;11.782;2023-12-20T07:53:31;0;0;
48155;PMS5003;35568;48.104;11.782;2023-12-20T07:55:58;1;1;
48155;PMS5003;35568;48.104;11.782;2023-12-20T07:58:25;0;0;
48155;PMS5003;35568;48.104;11.782;2023-12-20T08:00:52;0;0;
48155;PMS5003;35568;48.104;11.782;2023-12-20T08:03:20;0;0;
48155;PMS5003;35568;48.104;11.782;2023-12-20T08:05:47;1;1;
48155;PMS5003;35568;48.104;11.782;2023-12-20T08:08:14;1;1;
48155;PMS5003;35568;48.104;11.782;2023-12-20T08:10:41;0;0;
48155;PMS5003;35568;48.104;11.782;2023-12-20T08:13:08;0;0;
48155;PMS5003;35568;48.104;11.782;2023-12-20T08:15:35;1;1;
48155;PMS5003;35568;48.104;11.782;2023-12-20T08:18:02;0;0;
48155;PMS5003;35568;48.104;11.782;2023-12-20T08:20:29;0;0;
48155;PMS5003;35568;48.104;11.782;2023-12-20T08:22:56;1;1;
48155;PMS5003;35568;48.104;11.782;2023-12-20T08:25:23;0;0;
48155;PMS5003;35568;48.104;11.782;2023-12-20T08:27:51;0;0;
48155;PMS5003;35568;48.104;11.782;2023-12-20T08:30:18;1;0;
48155;PMS5003;35568;48.104;11.782;2023-12-20T08:32:46;0;0;
48155;PMS5003;35568;48.104;11.782;2023-12-20T08:35:13;0;0;
48155;PMS5003;35568;48.104;11.782;2023-12-20T08:37:40;0;0;
48155;PMS5003;35568;48.104;11.782;2023-12-20T08:40:07;1;1;
48155;PMS5003;35568;48.104;11.782;2023-12-20T08:42:35;1;1;
48155;PMS5003;35568;48.104;11.782;2023-12-20T08:45:03;1;0;
48155;PMS5003;35568;48.104;11.782;2023-12-20T08:47:30;0;0;
48155;PMS5003;35568;48.104;11.782;2023-12-20T08:49:57;0;0;
48155;PMS5003;35568;48.104;11.782;2023-12-20T08:52:24;1;1;
48155;PMS5003;35568;48.104;11.782;2023-12-20T08:54:52;1;1;
48155;PMS5003;35568;48.104;11.782;2023-12-20T08:57:19;1;1;
48155;PMS5003;35568;48.104;11.782;2023-12-20T08:59:47;0;0;
48155;PMS5003;35568;48.104;11.782;2023-12-20T09:02:15;0;0;
48155;PMS5003;35568;48.104;11.782;2023-12-20T09:04:43;0;0;
48155;PMS5003;35568;48.104;11.782;2023-12-20T09:07:22;1;1;
48155;PMS5003;35568;48.104;11.782;2023-12-20T09:09:49;0;0;
48155;PMS5003;35568;48.104;11.782;2023-12-20T09:12:17;1;1;
48155;PMS5003;35568;48.104;11.782;2023-12-20T09:14:45;1;1;
48155;PMS5003;35568;48.104;11.782;2023-12-20T09:17:12;0;0;
48155;PMS5003;35568;48.104;11.782;2023-12-20T09:19:39;0;0;
48155;PMS5003;35568;48.104;11.782;2023-12-20T09:22:06;0;0;
48155;PMS5003;35568;48.104;11.782;2023-12-20T09:24:33;0;0;
48155;PMS5003;35568;48.104;11.782;2023-12-20T09:27:00;0;0;
48155;PMS5003;35568;48.104;11.782;2023-12-20T09:29:27;0;0;
48155;PMS5003;35568;48.104;11.782;2023-12-20T09:31:53;0;0;
48155;PMS5003;35568;48.104;11.782;2023-12-20T09:34:20;0;0;
48155;PMS5003;35568;48.104;11.782;2023-12-20T09:36:47;1;1;
48155;PMS5003;35568;48.104;11.782;2023-12-20T09:39:15;1;1;
48155;PMS5003;35568;48.104;11.782;2023-12-20T09:41:44;0;0;
48155;PMS5003;35568;48.104;11.782;2023-12-20T09:44:16;0;0;
48155;PMS5003;35568;48.104;11.782;2023-12-20T09:46:44;1;0;
48155;PMS5003;35568;48.104;11.782;2023-12-20T09:49:16;0;0;
48155;PMS5003;35568;48.104;11.782;2023-12-20T09:51:45;0;0;
48155;PMS5003;35568;48.104;11.782;2023-12-20T09:54:14;0;0;
48155;PMS5003;35568;48.104;11.782;2023-12-20T09:56:43;2;2;
48155;PMS5003;35568;48.104;11.782;2023-12-20T09:59:10;0;0;
48155;PMS5003;35568;48.104;11.782;2023-12-20T10:01:38;0;0;
48155;PMS5003;35568;48.104;11.782;2023-12-20T10:04:07;0;0;
48155;PMS5003;35568;48.104;11.782;2023-12-20T10:06:36;0;0;
48155;PMS5003;35568;48.104;11.782;2023-12-20T10:09:04;0;0;
48155;PMS5003;35568;48.104;11.782;2023-12-20T10:11:31;0;0;
48155;PMS5003;35568;48.104;11.782;2023-12-20T10:13:59;1;1;
48155;PMS5003;35568;48.104;11.782;2023-12-20T10:16:26;0;0;
48155;PMS5003;35568;48.104;11.782;2023-12-20T10:18:54;0;0;
48155;PMS5003;35568;48.104;11.782;2023-12-20T10:21:22;2;1;
48155;PMS5003;35568;48.104;11.782;2023-12-20T10:23:49;0;0;
48155;PMS5003;35568;48.104;11.782;2023-12-20T10:26:19;1;1;
48155;PMS5003;35568;48.104;11.782;2023-12-20T10:28:49;0;0;
48155;PMS5003;35568;48.104;11.782;2023-12-20T10:31:26;0;0;
48155;PMS5003;35568;48.104;11.782;2023-12-20T10:33:56;1;1;
48155;PMS5003;35568;48.104;11.782;2023-12-20T10:36:25;1;1;
48155;PMS5003;35568;48.104;11.782;2023-12-20T10:38:53;1;1;
48155;PMS5003;35568;48.104;11.782;2023-12-20T10:41:22;1;1;
48155;PMS5003;35568;48.104;11.782;2023-12-20T10:43:52;1;1;
48155;PMS5003;35568;48.104;11.782;2023-12-20T10:46:22;1;1;
48155;PMS5003;35568;48.104;11.782;2023-12-20T10:48:50;0;0;
48155;PMS5003;35568;48.104;11.782;2023-12-20T10:51:19;3;3;
48155;PMS5003;35568;48.104;11.782;2023-12-20T10:53:48;3;2;
48155;PMS5003;35568;48.104;11.782;2023-12-20T10:56:16;0;0;
48155;PMS5003;35568;48.104;11.782;2023-12-20T10:58:44;1;1;
48155;PMS5003;35568;48.104;11.782;2023-12-20T11:01:13;3;2;
48155;PMS5003;35568;48.104;11.782;2023-12-20T11:03:43;1;1;
48155;PMS5003;35568;48.104;11.782;2023-12-20T11:06:23;1;1;
48155;PMS5003;35568;48.104;11.782;2023-12-20T11:09:03;1;1;
48155;PMS5003;35568;48.104;11.782;2023-12-20T11:11:38;0;0;
48155;PMS5003;35568;48.104;11.782;2023-12-20T11:14:32;0;0;
48155;PMS5003;35568;48.104;11.782;2023-12-20T11:17:08;1;1;
48155;PMS5003;35568;48.104;11.782;2023-12-20T11:19:36;0;0;
48155;PMS5003;35568;48.104;11.782;2023-12-20T11:19:38;0;0;
48155;PMS5003;35568;48.104;11.782;2023-12-20T11:22:31;0;0;
48155;PMS5003;35568;48.104;11.782;2023-12-20T11:24:59;1;1;
48155;PMS5003;35568;48.104;11.782;2023-12-20T11:27:31;0;0;
48155;PMS5003;35568;48.104;11.782;2023-12-20T11:29:58;1;1;
48155;PMS5003;35568;48.104;11.782;2023-12-20T11:32:30;1;1;
48155;PMS5003;35568;48.104;11.782;2023-12-20T11:34:58;0;0;
48155;PMS5003;35568;48.104;11.782;2023-12-20T11:37:29;1;1;
48155;PMS5003;35568;48.104;11.782;2023-12-20T11:40:00;0;0;
48155;PMS5003;35568;48.104;11.782;2023-12-20T11:42:33;2;2;
48155;PMS5003;35568;48.104;11.782;2023-12-20T11:45:01;0;0;
48155;PMS5003;35568;48.104;11.782;2023-12-20T11:47:29;0;0;
48155;PMS5003;35568;48.104;11.782;2023-12-20T11:49:56;0;0;
48155;PMS5003;35568;48.104;11.782;2023-12-20T11:52:24;1;1;
48155;PMS5003;35568;48.104;11.782;2023-12-20T11:54:51;1;1;
48155;PMS5003;35568;48.104;11.782;2023-12-20T11:57:18;1;1;
48155;PMS5003;35568;48.104;11.782;2023-12-20T11:59:45;0;0;
48155;PMS5003;35568;48.104;11.782;2023-12-20T12:02:13;1;1;
48155;PMS5003;35568;48.104;11.782;2023-12-20T12:04:41;1;1;
48155;PMS5003;35568;48.104;11.782;2023-12-20T12:07:07;0;0;
48155;PMS5003;35568;48.104;11.782;2023-12-20T12:09:34;2;2;
48155;PMS5003;35568;48.104;11.782;2023-12-20T12:12:02;2;2;
48155;PMS5003;35568;48.104;11.782;2023-12-20T12:14:30;1;1;
48155;PMS5003;35568;48.104;11.782;2023-12-20T12:16:57;0;0;
48155;PMS5003;35568;48.104;11.782;2023-12-20T12:19:25;1;1;
48155;PMS5003;35568;48.104;11.782;2023-12-20T12:22:05;1;1;
48155;PMS5003;35568;48.104;11.782;2023-12-20T12:24:33;1;1;
48155;PMS5003;35568;48.104;11.782;2023-12-20T12:27:00;1;1;
48155;PMS5003;35568;48.104;11.782;2023-12-20T12:29:28;1;1;
48155;PMS5003;35568;48.104;11.782;2023-12-20T12:31:56;1;1;
48155;PMS5003;35568;48.104;11.782;2023-12-20T12:34:23;0;0;
48155;PMS5003;35568;48.104;11.782;2023-12-20T12:36:50;1;1;
48155;PMS5003;35568;48.104;11.782;2023-12-20T12:39:17;2;2;
48155;PMS5003;35568;48.104;11.782;2023-12-20T12:41:45;1;1;
48155;PMS5003;35568;48.104;11.782;2023-12-20T12:44:12;1;1;
48155;PMS5003;35568;48.104;11.782;2023-12-20T12:46:39;2;2;
48155;PMS5003;35568;48.104;11.782;2023-12-20T12:49:07;0;0;
48155;PMS5003;35568;48.104;11.782;2023-12-20T12:51:34;0;0;
48155;PMS5003;35568;48.104;11.782;2023-12-20T12:54:02;0;0;
48155;PMS5003;35568;48.104;11.782;2023-12-20T12:56:29;2;2;
48155;PMS5003;35568;48.104;11.782;2023-12-20T12:58:56;0;0;
48155;PMS5003;35568;48.104;11.782;2023-12-20T13:01:23;1;1;
48155;PMS5003;35568;48.104;11.782;2023-12-20T13:03:50;2;2;
48155;PMS5003;35568;48.104;11.782;2023-12-20T13:06:17;6;5;
48155;PMS5003;35568;48.104;11.782;2023-12-20T13:08:43;2;2;
48155;PMS5003;35568;48.104;11.782;2023-12-20T13:11:10;2;1;
48155;PMS5003;35568;48.104;11.782;2023-12-20T13:13:37;2;2;
48155;PMS5003;35568;48.104;11.782;2023-12-20T13:16:04;1;1;
48155;PMS5003;35568;48.104;11.782;2023-12-20T13:18:32;1;1;
48155;PMS5003;35568;48.104;11.782;2023-12-20T13:20:59;1;1;
48155;PMS5003;35568;48.104;11.782;2023-12-20T13:23:27;0;0;
48155;PMS5003;35568;48.104;11.782;2023-12-20T13:25:54;1;1;
48155;PMS5003;35568;48.104;11.782;2023-12-20T13:28:21;2;2;
48155;PMS5003;35568;48.104;11.782;2023-12-20T13:30:48;2;2;
48155;PMS5003;35568;48.104;11.782;2023-12-20T13:33:15;2;2;
48155;PMS5003;35568;48.104;11.782;2023-12-20T13:35:43;2;2;
48155;PMS5003;35568;48.104;11.782;2023-12-20T13:38:10;3;2;
48155;PMS5003;35568;48.104;11.782;2023-12-20T13:40:40;3;3;
48155;PMS5003;35568;48.104;11.782;2023-12-20T13:43:07;2;2;
48155;PMS5003;35568;48.104;11.782;2023-12-20T13:45:34;4;3;
48155;PMS5003;35568;48.104;11.782;2023-12-20T13:48:01;3;3;
48155;PMS5003;35568;48.104;11.782;2023-12-20T13:50:28;2;2;
48155;PMS5003;35568;48.104;11.782;2023-12-20T13:52:54;2;2;
48155;PMS5003;35568;48.104;11.782;2023-12-20T13:55:21;4;4;
48155;PMS5003;35568;48.104;11.782;2023-12-20T13:57:49;2;2;
48155;PMS5003;35568;48.104;11.782;2023-12-20T14:00:16;1;1;
48155;PMS5003;35568;48.104;11.782;2023-12-20T14:02:44;1;1;
48155;PMS5003;35568;48.104;11.782;2023-12-20T14:05:10;2;1;
48155;PMS5003;35568;48.104;11.782;2023-12-20T14:07:37;2;2;
48155;PMS5003;35568;48.104;11.782;2023-12-20T14:10:05;3;3;
48155;PMS5003;35568;48.104;11.782;2023-12-20T14:12:33;2;2;
48155;PMS5003;35568;48.104;11.782;2023-12-20T14:15:00;3;2;
48155;PMS5003;35568;48.104;11.782;2023-12-20T14:17:26;2;2;
48155;PMS5003;35568;48.104;11.782;2023-12-20T14:19:53;3;3;
48155;PMS5003;35568;48.104;11.782;2023-12-20T14:22:20;2;2;
48155;PMS5003;35568;48.104;11.782;2023-12-20T14:24:48;3;3;
48155;PMS5003;35568;48.104;11.782;2023-12-20T14:27:15;3;3;
48155;PMS5003;35568;48.104;11.782;2023-12-20T14:29:41;3;3;
48155;PMS5003;35568;48.104;11.782;2023-12-20T14:32:08;3;3;
48155;PMS5003;35568;48.104;11.782;2023-12-20T14:34:35;2;2;
48155;PMS5003;35568;48.104;11.782;2023-12-20T14:37:02;3;3;
48155;PMS5003;35568;48.104;11.782;2023-12-20T14:39:30;3;3;
48155;PMS5003;35568;48.104;11.782;2023-12-20T14:41:57;3;3;
48155;PMS5003;35568;48.104;11.782;2023-12-20T14:44:24;3;3;
48155;PMS5003;35568;48.104;11.782;2023-12-20T14:46:51;3;3;
48155;PMS5003;35568;48.104;11.782;2023-12-20T14:49:18;2;2;
48155;PMS5003;35568;48.104;11.782;2023-12-20T14:51:45;3;3;
48155;PMS5003;35568;48.104;11.782;2023-12-20T14:54:12;1;1;
48155;PMS5003;35568;48.104;11.782;2023-12-20T14:56:39;1;1;
48155;PMS5003;35568;48.104;11.782;2023-12-20T14:59:06;2;1;
48155;PMS5003;35568;48.104;11.782;2023-12-20T15:01:33;2;2;
48155;PMS5003;35568;48.104;11.782;2023-12-20T15:04:00;3;3;
48155;PMS5003;35568;48.104;11.782;2023-12-20T15:06:27;2;1;
48155;PMS5003;35568;48.104;11.782;2023-12-20T15:08:54;3;3;
48155;PMS5003;35568;48.104;11.782;2023-12-20T15:11:21;1;1;
48155;PMS5003;35568;48.104;11.782;2023-12-20T15:13:49;3;3;
48155;PMS5003;35568;48.104;11.782;2023-12-20T15:16:16;4;4;
48155;PMS5003;35568;48.104;11.782;2023-12-20T15:18:42;3;2;
48155;PMS5003;35568;48.104;11.782;2023-12-20T15:21:09;2;2;
48155;PMS5003;35568;48.104;11.782;2023-12-20T15:23:36;3;3;
48155;PMS5003;35568;48.104;11.782;2023-12-20T15:26:03;4;4;
48155;PMS5003;35568;48.104;11.782;2023-12-20T15:28:30;4;2;
48155;PMS5003;35568;48.104;11.782;2023-12-20T15:30:57;4;4;
48155;PMS5003;35568;48.104;11.782;2023-12-20T15:33:24;2;2;
48155;PMS5003;35568;48.104;11.782;2023-12-20T15:35:50;2;2;
48155;PMS5003;35568;48.104;11.782;2023-12-20T15:38:17;3;3;
48155;PMS5003;35568;48.104;11.782;2023-12-20T15:40:44;2;2;
48155;PMS5003;35568;48.104;11.782;2023-12-20T15:43:11;1;1;
48155;PMS5003;35568;48.104;11.782;2023-12-20T15:45:38;3;3;
48155;PMS5003;35568;48.104;11.782;2023-12-20T15:48:05;2;2;
48155;PMS5003;35568;48.104;11.782;2023-12-20T15:50:33;3;3;
48155;PMS5003;35568;48.104;11.782;2023-12-20T15:52:59;3;3;
48155;PMS5003;35568;48.104;11.782;2023-12-20T15:55:27;2;2;
48155;PMS5003;35568;48.104;11.782;2023-12-20T15:57:54;3;3;
48155;PMS5003;35568;48.104;11.782;2023-12-20T16:00:21;3;3;
48155;PMS5003;35568;48.104;11.782;2023-12-20T16:02:48;2;2;
48155;PMS5003;35568;48.104;11.782;2023-12-20T16:05:15;2;2;
48155;PMS5003;35568;48.104;11.782;2023-12-20T16:07:42;2;2;
48155;PMS5003;35568;48.104;11.782;2023-12-20T16:10:08;3;3;
48155;PMS5003;35568;48.104;11.782;2023-12-20T16:12:36;1;1;
48155;PMS5003;35568;48.104;11.782;2023-12-20T16:15:04;2;2;
48155;PMS5003;35568;48.104;11.782;2023-12-20T16:17:31;2;2;
48155;PMS5003;35568;48.104;11.782;2023-12-20T16:19:59;2;2;
48155;PMS5003;35568;48.104;11.782;2023-12-20T16:22:27;3;2;
48155;PMS5003;35568;48.104;11.782;2023-12-20T16:24:54;2;1;
48155;PMS5003;35568;48.104;11.782;2023-12-20T16:27:21;3;3;
48155;PMS5003;35568;48.104;11.782;2023-12-20T16:29:48;4;3;
48155;PMS5003;35568;48.104;11.782;2023-12-20T16:32:15;5;5;
48155;PMS5003;35568;48.104;11.782;2023-12-20T16:34:42;2;2;